sensor_id;sensor_type;location;lat;lon;timestamp;temperature;humidity
65460;DHT22;52058;49.822;6.754;2022-07-23T00:02:18;22.31;64.71
65460;DHT22;52058;49.822;6.754;2022-07-23T00:04:43;22.21;64.97
65460;DHT22;52058;49.822;6.754;2022-07-23T00:07:09;22.23;65.03
65460;DHT22;52058;49.822;6.754;2022-07-23T00:09:34;22.16;65.21
65460;DHT22;52058;49.822;6.754;2022-07-23T00:11:59;22.09;65.32
65460;DHT22;52058;49.822;6.754;2022-07-23T00:14:24;22.02;65.44
65460;DHT22;52058;49.822;6.754;2022-07-23T00:16:50;21.99;65.36
65460;DHT22;52058;49.822;6.754;2022-07-23T00:19:15;22.04;65.38
65460;DHT22;52058;49.822;6.754;2022-07-23T00:21:40;21.83;65.76
65460;DHT22;52058;49.822;6.754;2022-07-23T00:24:06;21.86;65.72
65460;DHT22;52058;49.822;6.754;2022-07-23T00:26:31;21.81;65.85
65460;DHT22;52058;49.822;6.754;2022-07-23T00:28:57;21.76;65.85
65460;DHT22;52058;49.822;6.754;2022-07-23T00:31:22;21.71;66.07
65460;DHT22;52058;49.822;6.754;2022-07-23T00:33:47;21.76;65.83
65460;DHT22;52058;49.822;6.754;2022-07-23T00:36:12;21.88;65.56
65460;DHT22;52058;49.822;6.754;2022-07-23T00:38:38;21.82;65.73
65460;DHT22;52058;49.822;6.754;2022-07-23T00:41:03;21.90;65.51
65460;DHT22;52058;49.822;6.754;2022-07-23T00:43:28;21.97;65.34
65460;DHT22;52058;49.822;6.754;2022-07-23T00:45:54;22.02;65.25
65460;DHT22;52058;49.822;6.754;2022-07-23T00:48:19;22.03;65.34
65460;DHT22;52058;49.822;6.754;2022-07-23T00:50:44;22.03;65.16
65460;DHT22;52058;49.822;6.754;2022-07-23T00:53:10;21.94;65.34
65460;DHT22;52058;49.822;6.754;2022-07-23T00:55:35;21.93;65.44
65460;DHT22;52058;49.822;6.754;2022-07-23T00:58:01;21.73;65.91
65460;DHT22;52058;49.822;6.754;2022-07-23T01:00:28;21.69;65.94
65460;DHT22;52058;49.822;6.754;2022-07-23T01:02:54;21.66;65.98
65460;DHT22;52058;49.822;6.754;2022-07-23T01:05:19;21.56;66.14
65460;DHT22;52058;49.822;6.754;2022-07-23T01:07:48;21.45;66.33
65460;DHT22;52058;49.822;6.754;2022-07-23T01:10:14;21.45;66.21
65460;DHT22;52058;49.822;6.754;2022-07-23T01:13:03;21.42;66.33
65460;DHT22;52058;49.822;6.754;2022-07-23T01:15:34;21.44;66.42
65460;DHT22;52058;49.822;6.754;2022-07-23T01:18:00;21.56;66.25
65460;DHT22;52058;49.822;6.754;2022-07-23T01:20:25;21.59;66.28
65460;DHT22;52058;49.822;6.754;2022-07-23T01:22:52;21.67;66.09
65460;DHT22;52058;49.822;6.754;2022-07-23T01:25:17;21.58;66.31
65460;DHT22;52058;49.822;6.754;2022-07-23T01:27:43;21.62;66.18
65460;DHT22;52058;49.822;6.754;2022-07-23T01:30:09;21.45;66.35
65460;DHT22;52058;49.822;6.754;2022-07-23T01:32:34;21.31;66.68
65460;DHT22;52058;49.822;6.754;2022-07-23T01:35:00;21.28;66.68
65460;DHT22;52058;49.822;6.754;2022-07-23T01:37:25;21.06;67.19
65460;DHT22;52058;49.822;6.754;2022-07-23T01:39:50;21.11;66.86
65460;DHT22;52058;49.822;6.754;2022-07-23T01:42:16;21.28;66.11
65460;DHT22;52058;49.822;6.754;2022-07-23T01:44:41;21.31;66.09
65460;DHT22;52058;49.822;6.754;2022-07-23T01:47:06;21.23;66.01
65460;DHT22;52058;49.822;6.754;2022-07-23T01:49:32;21.27;66.11
65460;DHT22;52058;49.822;6.754;2022-07-23T01:51:57;21.24;66.18
65460;DHT22;52058;49.822;6.754;2022-07-23T01:54:26;21.17;66.31
65460;DHT22;52058;49.822;6.754;2022-07-23T01:56:52;20.98;66.34
65460;DHT22;52058;49.822;6.754;2022-07-23T01:59:17;21.00;66.55
65460;DHT22;52058;49.822;6.754;2022-07-23T02:01:42;21.04;66.45
65460;DHT22;52058;49.822;6.754;2022-07-23T02:04:08;21.00;66.50
65460;DHT22;52058;49.822;6.754;2022-07-23T02:06:33;20.80;66.96
65460;DHT22;52058;49.822;6.754;2022-07-23T02:08:58;20.84;66.96
65460;DHT22;52058;49.822;6.754;2022-07-23T02:11:23;20.80;67.04
65460;DHT22;52058;49.822;6.754;2022-07-23T02:13:49;20.81;67.20
65460;DHT22;52058;49.822;6.754;2022-07-23T02:16:14;20.91;67.11
65460;DHT22;52058;49.822;6.754;2022-07-23T02:18:39;20.97;67.03
65460;DHT22;52058;49.822;6.754;2022-07-23T02:21:05;20.93;67.19
65460;DHT22;52058;49.822;6.754;2022-07-23T02:23:30;20.79;67.53
65460;DHT22;52058;49.822;6.754;2022-07-23T02:25:55;20.87;67.43
65460;DHT22;52058;49.822;6.754;2022-07-23T02:28:20;20.77;67.58
65460;DHT22;52058;49.822;6.754;2022-07-23T02:30:46;20.75;67.53
65460;DHT22;52058;49.822;6.754;2022-07-23T02:33:11;20.80;67.41
65460;DHT22;52058;49.822;6.754;2022-07-23T02:35:36;20.76;67.36
65460;DHT22;52058;49.822;6.754;2022-07-23T02:38:02;20.70;67.41
65460;DHT22;52058;49.822;6.754;2022-07-23T02:40:27;20.67;67.40
65460;DHT22;52058;49.822;6.754;2022-07-23T02:42:52;20.65;67.30
65460;DHT22;52058;49.822;6.754;2022-07-23T02:45:17;20.66;67.34
65460;DHT22;52058;49.822;6.754;2022-07-23T02:47:43;20.55;67.56
65460;DHT22;52058;49.822;6.754;2022-07-23T02:50:08;20.49;67.71
65460;DHT22;52058;49.822;6.754;2022-07-23T02:52:34;20.39;67.88
65460;DHT22;52058;49.822;6.754;2022-07-23T02:54:59;20.11;68.10
65460;DHT22;52058;49.822;6.754;2022-07-23T02:57:24;19.89;68.40
65460;DHT22;52058;49.822;6.754;2022-07-23T02:59:49;19.75;68.56
65460;DHT22;52058;49.822;6.754;2022-07-23T03:02:15;19.78;68.39
65460;DHT22;52058;49.822;6.754;2022-07-23T03:04:40;19.67;68.70
65460;DHT22;52058;49.822;6.754;2022-07-23T03:07:07;19.74;68.53
65460;DHT22;52058;49.822;6.754;2022-07-23T03:09:32;19.84;68.47
65460;DHT22;52058;49.822;6.754;2022-07-23T03:11:58;19.68;68.54
65460;DHT22;52058;49.822;6.754;2022-07-23T03:14:23;19.78;68.50
65460;DHT22;52058;49.822;6.754;2022-07-23T03:16:49;19.75;68.60
65460;DHT22;52058;49.822;6.754;2022-07-23T03:19:15;19.75;68.81
65460;DHT22;52058;49.822;6.754;2022-07-23T03:21:40;19.70;69.08
65460;DHT22;52058;49.822;6.754;2022-07-23T03:24:09;19.67;69.26
65460;DHT22;52058;49.822;6.754;2022-07-23T03:26:35;19.53;69.66
65460;DHT22;52058;49.822;6.754;2022-07-23T03:29:00;19.47;69.89
65460;DHT22;52058;49.822;6.754;2022-07-23T03:31:28;19.34;70.21
65460;DHT22;52058;49.822;6.754;2022-07-23T03:33:53;19.43;70.22
65460;DHT22;52058;49.822;6.754;2022-07-23T03:36:19;19.46;70.21
65460;DHT22;52058;49.822;6.754;2022-07-23T03:38:44;19.45;70.19
65460;DHT22;52058;49.822;6.754;2022-07-23T03:41:09;19.45;70.10
65460;DHT22;52058;49.822;6.754;2022-07-23T03:43:35;19.27;70.57
65460;DHT22;52058;49.822;6.754;2022-07-23T03:46:00;19.24;70.74
65460;DHT22;52058;49.822;6.754;2022-07-23T03:48:25;19.22;70.80
65460;DHT22;52058;49.822;6.754;2022-07-23T03:50:50;19.08;71.07
65460;DHT22;52058;49.822;6.754;2022-07-23T03:53:16;19.12;70.89
65460;DHT22;52058;49.822;6.754;2022-07-23T03:55:41;19.18;70.74
65460;DHT22;52058;49.822;6.754;2022-07-23T03:58:07;19.24;70.70
65460;DHT22;52058;49.822;6.754;2022-07-23T04:00:32;19.20;70.82
65460;DHT22;52058;49.822;6.754;2022-07-23T04:02:57;19.19;70.89
65460;DHT22;52058;49.822;6.754;2022-07-23T04:05:22;19.08;71.18
65460;DHT22;52058;49.822;6.754;2022-07-23T04:07:48;19.10;71.16
65460;DHT22;52058;49.822;6.754;2022-07-23T04:10:13;18.99;71.31
65460;DHT22;52058;49.822;6.754;2022-07-23T04:12:38;19.06;71.37
65460;DHT22;52058;49.822;6.754;2022-07-23T04:15:04;19.15;71.24
65460;DHT22;52058;49.822;6.754;2022-07-23T04:17:31;19.10;71.39
65460;DHT22;52058;49.822;6.754;2022-07-23T04:19:57;19.03;71.43
65460;DHT22;52058;49.822;6.754;2022-07-23T04:22:22;19.02;71.27
65460;DHT22;52058;49.822;6.754;2022-07-23T04:24:47;18.95;71.52
65460;DHT22;52058;49.822;6.754;2022-07-23T04:27:14;18.91;71.64
65460;DHT22;52058;49.822;6.754;2022-07-23T04:29:39;18.95;71.54
65460;DHT22;52058;49.822;6.754;2022-07-23T04:32:05;19.02;71.40
65460;DHT22;52058;49.822;6.754;2022-07-23T04:34:30;18.99;71.43
65460;DHT22;52058;49.822;6.754;2022-07-23T04:36:55;18.98;71.44
65460;DHT22;52058;49.822;6.754;2022-07-23T04:39:21;18.91;71.60
65460;DHT22;52058;49.822;6.754;2022-07-23T04:41:46;18.95;71.52
65460;DHT22;52058;49.822;6.754;2022-07-23T04:44:11;18.94;71.53
65460;DHT22;52058;49.822;6.754;2022-07-23T04:46:37;19.02;71.40
65460;DHT22;52058;49.822;6.754;2022-07-23T04:49:02;18.94;71.42
65460;DHT22;52058;49.822;6.754;2022-07-23T04:51:28;19.12;71.17
65460;DHT22;52058;49.822;6.754;2022-07-23T04:53:54;19.29;70.80
65460;DHT22;52058;49.822;6.754;2022-07-23T04:56:19;19.39;70.44
65460;DHT22;52058;49.822;6.754;2022-07-23T04:58:44;19.50;70.20
65460;DHT22;52058;49.822;6.754;2022-07-23T05:01:10;19.67;69.93
65460;DHT22;52058;49.822;6.754;2022-07-23T05:03:35;19.74;69.78
65460;DHT22;52058;49.822;6.754;2022-07-23T05:06:00;19.78;69.78
65460;DHT22;52058;49.822;6.754;2022-07-23T05:08:26;19.77;69.78
65460;DHT22;52058;49.822;6.754;2022-07-23T05:10:51;19.71;69.95
65460;DHT22;52058;49.822;6.754;2022-07-23T05:13:17;19.70;69.89
65460;DHT22;52058;49.822;6.754;2022-07-23T05:15:43;19.74;70.02
65460;DHT22;52058;49.822;6.754;2022-07-23T05:18:09;19.71;69.86
65460;DHT22;52058;49.822;6.754;2022-07-23T05:20:34;19.87;69.65
65460;DHT22;52058;49.822;6.754;2022-07-23T05:22:59;20.15;69.15
65460;DHT22;52058;49.822;6.754;2022-07-23T05:25:25;20.26;68.86
65460;DHT22;52058;49.822;6.754;2022-07-23T05:27:50;20.33;68.66
65460;DHT22;52058;49.822;6.754;2022-07-23T05:30:15;20.35;68.67
65460;DHT22;52058;49.822;6.754;2022-07-23T05:32:41;20.29;68.78
65460;DHT22;52058;49.822;6.754;2022-07-23T05:35:07;20.36;68.69
65460;DHT22;52058;49.822;6.754;2022-07-23T05:37:32;20.32;68.78
65460;DHT22;52058;49.822;6.754;2022-07-23T05:40:05;20.49;68.73
65460;DHT22;52058;49.822;6.754;2022-07-23T05:42:35;20.52;68.48
65460;DHT22;52058;49.822;6.754;2022-07-23T05:45:01;20.59;68.25
65460;DHT22;52058;49.822;6.754;2022-07-23T05:47:26;20.63;68.27
65460;DHT22;52058;49.822;6.754;2022-07-23T05:49:52;20.90;67.72
65460;DHT22;52058;49.822;6.754;2022-07-23T05:52:17;21.20;67.16
65460;DHT22;52058;49.822;6.754;2022-07-23T05:54:42;21.00;67.33
65460;DHT22;52058;49.822;6.754;2022-07-23T05:57:07;21.20;67.04
65460;DHT22;52058;49.822;6.754;2022-07-23T05:59:33;21.30;66.72
65460;DHT22;52058;49.822;6.754;2022-07-23T06:01:58;21.18;66.69
65460;DHT22;52058;49.822;6.754;2022-07-23T06:04:24;21.27;66.46
65460;DHT22;52058;49.822;6.754;2022-07-23T06:06:49;21.34;66.38
65460;DHT22;52058;49.822;6.754;2022-07-23T06:09:15;21.49;66.29
65460;DHT22;52058;49.822;6.754;2022-07-23T06:11:40;21.92;65.08
65460;DHT22;52058;49.822;6.754;2022-07-23T06:14:06;22.30;64.48
65460;DHT22;52058;49.822;6.754;2022-07-23T06:16:31;22.72;63.61
65460;DHT22;52058;49.822;6.754;2022-07-23T06:18:57;23.19;62.03
65460;DHT22;52058;49.822;6.754;2022-07-23T06:21:22;23.69;60.97
65460;DHT22;52058;49.822;6.754;2022-07-23T06:23:47;24.93;57.58
65460;DHT22;52058;49.822;6.754;2022-07-23T06:26:13;24.29;59.14
65460;DHT22;52058;49.822;6.754;2022-07-23T06:28:38;26.54;54.10
65460;DHT22;52058;49.822;6.754;2022-07-23T06:31:03;24.97;57.32
65460;DHT22;52058;49.822;6.754;2022-07-23T06:33:28;24.24;59.35
65460;DHT22;52058;49.822;6.754;2022-07-23T06:35:54;23.84;60.13
65460;DHT22;52058;49.822;6.754;2022-07-23T06:38:19;23.85;60.19
65460;DHT22;52058;49.822;6.754;2022-07-23T06:40:44;23.39;60.92
65460;DHT22;52058;49.822;6.754;2022-07-23T06:43:10;23.29;61.40
65460;DHT22;52058;49.822;6.754;2022-07-23T06:45:35;23.56;60.43
65460;DHT22;52058;49.822;6.754;2022-07-23T06:48:01;23.80;59.65
65460;DHT22;52058;49.822;6.754;2022-07-23T06:50:27;23.82;59.18
65460;DHT22;52058;49.822;6.754;2022-07-23T06:52:53;24.60;57.22
65460;DHT22;52058;49.822;6.754;2022-07-23T06:55:18;24.28;57.11
65460;DHT22;52058;49.822;6.754;2022-07-23T06:57:43;25.00;55.38
65460;DHT22;52058;49.822;6.754;2022-07-23T07:00:09;24.72;56.09
65460;DHT22;52058;49.822;6.754;2022-07-23T07:02:34;26.03;53.42
65460;DHT22;52058;49.822;6.754;2022-07-23T07:05:00;25.83;53.30
65460;DHT22;52058;49.822;6.754;2022-07-23T07:07:25;26.09;52.87
65460;DHT22;52058;49.822;6.754;2022-07-23T07:09:50;27.56;50.02
65460;DHT22;52058;49.822;6.754;2022-07-23T07:12:16;28.56;47.31
65460;DHT22;52058;49.822;6.754;2022-07-23T07:14:41;27.93;48.91
65460;DHT22;52058;49.822;6.754;2022-07-23T07:17:06;27.86;49.15
65460;DHT22;52058;49.822;6.754;2022-07-23T07:19:31;27.06;50.51
65460;DHT22;52058;49.822;6.754;2022-07-23T07:21:57;27.13;50.46
65460;DHT22;52058;49.822;6.754;2022-07-23T07:24:22;27.46;50.32
65460;DHT22;52058;49.822;6.754;2022-07-23T07:26:47;27.42;49.92
65460;DHT22;52058;49.822;6.754;2022-07-23T07:29:13;27.26;50.02
65460;DHT22;52058;49.822;6.754;2022-07-23T07:31:38;27.13;50.29
65460;DHT22;52058;49.822;6.754;2022-07-23T07:34:03;27.86;48.26
65460;DHT22;52058;49.822;6.754;2022-07-23T07:36:29;28.00;48.29
65460;DHT22;52058;49.822;6.754;2022-07-23T07:38:54;28.46;47.28
65460;DHT22;52058;49.822;6.754;2022-07-23T07:41:20;28.66;47.10
65460;DHT22;52058;49.822;6.754;2022-07-23T07:43:49;29.18;46.43
65460;DHT22;52058;49.822;6.754;2022-07-23T07:46:15;29.21;45.40
65460;DHT22;52058;49.822;6.754;2022-07-23T07:48:40;29.04;46.12
65460;DHT22;52058;49.822;6.754;2022-07-23T07:51:05;30.29;43.71
65460;DHT22;52058;49.822;6.754;2022-07-23T07:53:31;29.54;44.83
65460;DHT22;52058;49.822;6.754;2022-07-23T07:55:56;30.74;42.97
65460;DHT22;52058;49.822;6.754;2022-07-23T07:58:21;32.66;39.55
65460;DHT22;52058;49.822;6.754;2022-07-23T08:00:47;36.60;33.94
65460;DHT22;52058;49.822;6.754;2022-07-23T08:03:12;36.99;33.11
65460;DHT22;52058;49.822;6.754;2022-07-23T08:05:38;36.64;32.95
65460;DHT22;52058;49.822;6.754;2022-07-23T08:08:03;39.85;29.75
65460;DHT22;52058;49.822;6.754;2022-07-23T08:10:29;41.64;27.83
65460;DHT22;52058;49.822;6.754;2022-07-23T08:12:57;41.96;27.39
65460;DHT22;52058;49.822;6.754;2022-07-23T08:15:24;41.85;27.30
65460;DHT22;52058;49.822;6.754;2022-07-23T08:17:49;41.55;27.49
65460;DHT22;52058;49.822;6.754;2022-07-23T08:20:17;41.95;27.01
65460;DHT22;52058;49.822;6.754;2022-07-23T08:22:59;42.79;26.24
65460;DHT22;52058;49.822;6.754;2022-07-23T08:27:52;42.02;26.59
65460;DHT22;52058;49.822;6.754;2022-07-23T08:30:19;43.27;26.17
65460;DHT22;52058;49.822;6.754;2022-07-23T08:37:54;43.20;26.12
65460;DHT22;52058;49.822;6.754;2022-07-23T08:40:20;41.48;27.42
65460;DHT22;52058;49.822;6.754;2022-07-23T08:42:50;41.54;27.31
65460;DHT22;52058;49.822;6.754;2022-07-23T08:45:18;42.57;26.18
65460;DHT22;52058;49.822;6.754;2022-07-23T08:47:45;42.39;26.33
65460;DHT22;52058;49.822;6.754;2022-07-23T08:50:14;42.75;25.99
65460;DHT22;52058;49.822;6.754;2022-07-23T08:52:40;43.70;25.14
65460;DHT22;52058;49.822;6.754;2022-07-23T08:55:06;43.20;25.69
65460;DHT22;52058;49.822;6.754;2022-07-23T08:57:32;45.17;24.20
65460;DHT22;52058;49.822;6.754;2022-07-23T08:59:57;44.75;24.44
65460;DHT22;52058;49.822;6.754;2022-07-23T09:02:23;43.90;25.34
65460;DHT22;52058;49.822;6.754;2022-07-23T09:04:48;42.94;26.07
65460;DHT22;52058;49.822;6.754;2022-07-23T09:07:13;45.47;24.03
65460;DHT22;52058;49.822;6.754;2022-07-23T09:09:39;45.95;23.46
65460;DHT22;52058;49.822;6.754;2022-07-23T09:12:09;47.45;22.56
65460;DHT22;52058;49.822;6.754;2022-07-23T09:14:42;47.33;22.47
65460;DHT22;52058;49.822;6.754;2022-07-23T09:17:12;47.02;22.79
65460;DHT22;52058;49.822;6.754;2022-07-23T09:19:38;45.71;23.57
65460;DHT22;52058;49.822;6.754;2022-07-23T09:22:24;45.32;23.97
65460;DHT22;52058;49.822;6.754;2022-07-23T09:27:57;43.57;25.19
65460;DHT22;52058;49.822;6.754;2022-07-23T09:30:25;42.95;25.81
65460;DHT22;52058;49.822;6.754;2022-07-23T09:33:11;41.92;26.93
65460;DHT22;52058;49.822;6.754;2022-07-23T09:35:53;42.45;25.74
65460;DHT22;52058;49.822;6.754;2022-07-23T09:38:24;44.51;24.30
65460;DHT22;52058;49.822;6.754;2022-07-23T09:41:06;45.36;23.61
65460;DHT22;52058;49.822;6.754;2022-07-23T09:43:31;42.98;25.20
65460;DHT22;52058;49.822;6.754;2022-07-23T09:46:19;42.54;24.61
65460;DHT22;52058;49.822;6.754;2022-07-23T09:48:47;46.70;21.98
65460;DHT22;52058;49.822;6.754;2022-07-23T09:51:12;44.75;23.40
65460;DHT22;52058;49.822;6.754;2022-07-23T09:53:40;46.65;22.20
65460;DHT22;52058;49.822;6.754;2022-07-23T09:56:07;47.96;21.44
65460;DHT22;52058;49.822;6.754;2022-07-23T09:58:33;46.07;22.56
65460;DHT22;52058;49.822;6.754;2022-07-23T10:01:03;45.91;22.20
65460;DHT22;52058;49.822;6.754;2022-07-23T10:03:29;45.41;22.07
65460;DHT22;52058;49.822;6.754;2022-07-23T10:05:54;42.71;24.56
65460;DHT22;52058;49.822;6.754;2022-07-23T10:08:20;43.84;24.24
65460;DHT22;52058;49.822;6.754;2022-07-23T10:10:47;46.09;22.46
65460;DHT22;52058;49.822;6.754;2022-07-23T10:13:14;44.65;23.22
65460;DHT22;52058;49.822;6.754;2022-07-23T10:15:58;44.62;23.27
65460;DHT22;52058;49.822;6.754;2022-07-23T10:18:24;43.15;24.24
65460;DHT22;52058;49.822;6.754;2022-07-23T10:20:50;43.42;24.73
65460;DHT22;52058;49.822;6.754;2022-07-23T10:23:31;44.83;22.96
65460;DHT22;52058;49.822;6.754;2022-07-23T10:26:08;46.83;22.39
65460;DHT22;52058;49.822;6.754;2022-07-23T10:28:58;46.51;21.83
65460;DHT22;52058;49.822;6.754;2022-07-23T10:34:21;46.97;21.60
65460;DHT22;52058;49.822;6.754;2022-07-23T10:36:52;43.49;23.76
65460;DHT22;52058;49.822;6.754;2022-07-23T10:41:47;45.91;22.17
65460;DHT22;52058;49.822;6.754;2022-07-23T10:44:14;46.19;22.05
65460;DHT22;52058;49.822;6.754;2022-07-23T10:47:00;44.55;23.35
65460;DHT22;52058;49.822;6.754;2022-07-23T10:49:37;45.95;23.25
65460;DHT22;52058;49.822;6.754;2022-07-23T10:54:44;44.44;23.75
65460;DHT22;52058;49.822;6.754;2022-07-23T10:57:11;42.95;24.45
65460;DHT22;52058;49.822;6.754;2022-07-23T11:02:39;41.33;26.81
65460;DHT22;52058;49.822;6.754;2022-07-23T11:05:09;42.61;25.25
65460;DHT22;52058;49.822;6.754;2022-07-23T11:07:37;42.02;25.71
65460;DHT22;52058;49.822;6.754;2022-07-23T11:24:11;45.19;23.51
65460;DHT22;52058;49.822;6.754;2022-07-23T11:32:01;44.25;23.67
65460;DHT22;52058;49.822;6.754;2022-07-23T11:34:47;43.38;24.67
65460;DHT22;52058;49.822;6.754;2022-07-23T11:37:29;39.31;28.06
65460;DHT22;52058;49.822;6.754;2022-07-23T11:39:57;36.66;29.79
65460;DHT22;52058;49.822;6.754;2022-07-23T11:42:22;38.27;29.04
65460;DHT22;52058;49.822;6.754;2022-07-23T11:44:49;37.90;29.42
65460;DHT22;52058;49.822;6.754;2022-07-23T11:47:20;38.54;28.93
65460;DHT22;52058;49.822;6.754;2022-07-23T11:49:57;34.56;33.42
65460;DHT22;52058;49.822;6.754;2022-07-23T11:52:23;36.13;32.43
65460;DHT22;52058;49.822;6.754;2022-07-23T11:54:53;35.48;31.70
65460;DHT22;52058;49.822;6.754;2022-07-23T11:57:19;34.76;32.64
65460;DHT22;52058;49.822;6.754;2022-07-23T11:59:52;33.75;33.94
65460;DHT22;52058;49.822;6.754;2022-07-23T12:02:20;33.75;34.43
65460;DHT22;52058;49.822;6.754;2022-07-23T12:04:47;34.36;33.31
65460;DHT22;52058;49.822;6.754;2022-07-23T12:07:35;32.16;35.38
65460;DHT22;52058;49.822;6.754;2022-07-23T12:15:04;32.62;35.77
65460;DHT22;52058;49.822;6.754;2022-07-23T12:17:32;31.84;36.88
65460;DHT22;52058;49.822;6.754;2022-07-23T12:19:58;32.31;36.11
65460;DHT22;52058;49.822;6.754;2022-07-23T12:22:26;32.49;35.88
65460;DHT22;52058;49.822;6.754;2022-07-23T12:25:00;32.42;36.10
65460;DHT22;52058;49.822;6.754;2022-07-23T12:27:26;32.46;35.97
65460;DHT22;52058;49.822;6.754;2022-07-23T12:29:52;32.29;36.68
65460;DHT22;52058;49.822;6.754;2022-07-23T12:32:28;32.72;35.97
65460;DHT22;52058;49.822;6.754;2022-07-23T12:35:05;32.68;36.28
65460;DHT22;52058;49.822;6.754;2022-07-23T12:37:39;32.75;35.98
65460;DHT22;52058;49.822;6.754;2022-07-23T12:40:29;32.83;36.10
65460;DHT22;52058;49.822;6.754;2022-07-23T12:42:58;31.87;36.34
65460;DHT22;52058;49.822;6.754;2022-07-23T12:45:24;33.35;35.12
65460;DHT22;52058;49.822;6.754;2022-07-23T12:47:51;33.10;35.21
65460;DHT22;52058;49.822;6.754;2022-07-23T12:50:39;32.42;36.17
65460;DHT22;52058;49.822;6.754;2022-07-23T12:53:07;32.99;35.13
65460;DHT22;52058;49.822;6.754;2022-07-23T12:55:35;33.06;35.32
65460;DHT22;52058;49.822;6.754;2022-07-23T12:58:15;32.34;35.99
65460;DHT22;52058;49.822;6.754;2022-07-23T13:01:03;32.64;35.78
65460;DHT22;52058;49.822;6.754;2022-07-23T13:03:32;32.79;35.53
65460;DHT22;52058;49.822;6.754;2022-07-23T13:05:59;32.93;35.40
65460;DHT22;52058;49.822;6.754;2022-07-23T13:08:25;33.20;35.79
65460;DHT22;52058;49.822;6.754;2022-07-23T13:10:51;33.54;34.53
65460;DHT22;52058;49.822;6.754;2022-07-23T13:13:20;31.79;36.45
65460;DHT22;52058;49.822;6.754;2022-07-23T13:15:45;30.80;38.49
65460;DHT22;52058;49.822;6.754;2022-07-23T13:18:11;30.14;38.81
65460;DHT22;52058;49.822;6.754;2022-07-23T13:20:36;31.30;38.06
65460;DHT22;52058;49.822;6.754;2022-07-23T13:23:04;31.80;37.12
65460;DHT22;52058;49.822;6.754;2022-07-23T13:25:29;31.33;37.02
65460;DHT22;52058;49.822;6.754;2022-07-23T13:27:54;31.83;37.01
65460;DHT22;52058;49.822;6.754;2022-07-23T13:30:20;31.80;36.61
65460;DHT22;52058;49.822;6.754;2022-07-23T13:32:45;31.60;36.91
65460;DHT22;52058;49.822;6.754;2022-07-23T13:35:10;31.73;36.06
65460;DHT22;52058;49.822;6.754;2022-07-23T13:37:37;31.02;36.88
65460;DHT22;52058;49.822;6.754;2022-07-23T13:40:02;31.33;37.25
65460;DHT22;52058;49.822;6.754;2022-07-23T13:42:28;31.84;36.28
65460;DHT22;52058;49.822;6.754;2022-07-23T13:44:53;31.62;35.75
65460;DHT22;52058;49.822;6.754;2022-07-23T13:47:18;31.81;36.09
65460;DHT22;52058;49.822;6.754;2022-07-23T13:49:44;31.56;36.44
65460;DHT22;52058;49.822;6.754;2022-07-23T13:52:09;31.30;36.70
65460;DHT22;52058;49.822;6.754;2022-07-23T13:54:35;31.76;36.46
65460;DHT22;52058;49.822;6.754;2022-07-23T13:57:01;31.30;36.60
65460;DHT22;52058;49.822;6.754;2022-07-23T13:59:26;31.25;36.74
65460;DHT22;52058;49.822;6.754;2022-07-23T14:01:51;31.23;37.06
65460;DHT22;52058;49.822;6.754;2022-07-23T14:04:17;30.84;36.86
65460;DHT22;52058;49.822;6.754;2022-07-23T14:06:42;30.48;37.54
65460;DHT22;52058;49.822;6.754;2022-07-23T14:09:07;30.33;37.62
65460;DHT22;52058;49.822;6.754;2022-07-23T14:11:32;30.59;37.61
65460;DHT22;52058;49.822;6.754;2022-07-23T14:13:58;30.64;37.16
65460;DHT22;52058;49.822;6.754;2022-07-23T14:16:25;31.03;36.85
65460;DHT22;52058;49.822;6.754;2022-07-23T14:18:51;30.90;37.05
65460;DHT22;52058;49.822;6.754;2022-07-23T14:21:16;31.11;36.80
65460;DHT22;52058;49.822;6.754;2022-07-23T14:23:41;31.03;37.02
65460;DHT22;52058;49.822;6.754;2022-07-23T14:26:07;30.95;36.75
65460;DHT22;52058;49.822;6.754;2022-07-23T14:28:33;31.32;36.96
65460;DHT22;52058;49.822;6.754;2022-07-23T14:30:59;30.85;37.26
65460;DHT22;52058;49.822;6.754;2022-07-23T14:33:24;30.95;38.16
65460;DHT22;52058;49.822;6.754;2022-07-23T14:35:49;31.08;37.46
65460;DHT22;52058;49.822;6.754;2022-07-23T14:38:14;30.77;37.91
65460;DHT22;52058;49.822;6.754;2022-07-23T14:40:40;30.71;37.72
65460;DHT22;52058;49.822;6.754;2022-07-23T14:43:06;31.21;37.92
65460;DHT22;52058;49.822;6.754;2022-07-23T14:45:31;31.12;37.38
65460;DHT22;52058;49.822;6.754;2022-07-23T14:47:56;30.99;37.94
65460;DHT22;52058;49.822;6.754;2022-07-23T14:50:22;30.44;38.60
65460;DHT22;52058;49.822;6.754;2022-07-23T14:52:47;30.85;37.32
65460;DHT22;52058;49.822;6.754;2022-07-23T14:55:12;30.77;37.12
65460;DHT22;52058;49.822;6.754;2022-07-23T14:57:38;30.90;37.50
65460;DHT22;52058;49.822;6.754;2022-07-23T15:00:04;30.77;37.74
65460;DHT22;52058;49.822;6.754;2022-07-23T15:02:31;30.65;39.24
65460;DHT22;52058;49.822;6.754;2022-07-23T15:04:56;30.82;38.41
65460;DHT22;52058;49.822;6.754;2022-07-23T15:07:26;30.78;37.86
65460;DHT22;52058;49.822;6.754;2022-07-23T15:09:51;30.68;38.24
65460;DHT22;52058;49.822;6.754;2022-07-23T15:12:16;30.99;38.20
65460;DHT22;52058;49.822;6.754;2022-07-23T15:14:41;30.91;38.66
65460;DHT22;52058;49.822;6.754;2022-07-23T15:17:08;30.78;38.36
65460;DHT22;52058;49.822;6.754;2022-07-23T15:19:33;30.67;38.31
65460;DHT22;52058;49.822;6.754;2022-07-23T15:21:58;30.87;38.20
65460;DHT22;52058;49.822;6.754;2022-07-23T15:24:24;31.01;37.70
65460;DHT22;52058;49.822;6.754;2022-07-23T15:26:50;30.85;38.04
65460;DHT22;52058;49.822;6.754;2022-07-23T15:29:15;30.88;37.61
65460;DHT22;52058;49.822;6.754;2022-07-23T15:31:40;30.84;38.23
65460;DHT22;52058;49.822;6.754;2022-07-23T15:34:06;31.28;37.83
65460;DHT22;52058;49.822;6.754;2022-07-23T15:36:31;31.42;38.04
65460;DHT22;52058;49.822;6.754;2022-07-23T15:38:56;31.39;37.78
65460;DHT22;52058;49.822;6.754;2022-07-23T15:41:22;31.77;37.32
65460;DHT22;52058;49.822;6.754;2022-07-23T15:43:47;31.77;37.59
65460;DHT22;52058;49.822;6.754;2022-07-23T15:46:12;31.80;36.81
65460;DHT22;52058;49.822;6.754;2022-07-23T15:48:38;32.11;36.64
65460;DHT22;52058;49.822;6.754;2022-07-23T15:51:05;32.35;36.48
65460;DHT22;52058;49.822;6.754;2022-07-23T15:53:31;31.65;37.17
65460;DHT22;52058;49.822;6.754;2022-07-23T15:55:56;31.47;37.11
65460;DHT22;52058;49.822;6.754;2022-07-23T15:58:22;31.23;37.83
65460;DHT22;52058;49.822;6.754;2022-07-23T16:00:47;31.76;37.39
65460;DHT22;52058;49.822;6.754;2022-07-23T16:03:13;31.19;37.55
65460;DHT22;52058;49.822;6.754;2022-07-23T16:05:41;31.45;37.90
65460;DHT22;52058;49.822;6.754;2022-07-23T16:08:06;31.26;37.74
65460;DHT22;52058;49.822;6.754;2022-07-23T16:10:31;30.96;38.10
65460;DHT22;52058;49.822;6.754;2022-07-23T16:12:57;30.53;37.75
65460;DHT22;52058;49.822;6.754;2022-07-23T16:15:23;30.36;40.26